Time;durP1;ratioP1;P1;durP2;ratioP2;P2;SDS_P1;SDS_P2;PMS_P1;PMS_P2;Temp;Humidity;BMP_temperature;BMP_pressure;BME280_temperature;BME280_humidity;BME280_pressure;Samples;Min_cycle;Max_cycle;Signal;HPM_P1;HPM_P2
2021/05/06 00:33:48;;;;;;;3.70;2.13;;;;;;;11.97;59.47;99982.44;5017467;28;20026;-55
2021/05/06 00:36:14;;;;;;;8.30;2.25;;;;;;;11.95;59.45;99984.88;5016979;28;20052;-55
2021/05/06 00:39:02;;;;;;;6.45;2.38;;;;;;;11.94;59.71;99984.09;5017385;28;20410;-57
2021/05/06 00:55:02;;;;;;;4.95;2.03;;;;;;;11.93;57.82;100002.22;5016633;28;20053;-53
2021/05/06 01:05:45;;;;;;;3.75;1.77;;;;;;;11.88;57.50;100011.13;4996844;28;20053;-56
2021/05/06 01:13:27;;;;;;;2.65;1.45;;;;;;;11.85;57.72;100034.50;5016771;28;20042;-54
2021/05/06 01:15:52;;;;;;;2.88;1.60;;;;;;;11.85;57.89;100045.78;5003153;28;20041;-56
2021/05/06 01:18:18;;;;;;;2.95;1.65;;;;;;;11.86;57.47;100041.72;5016589;28;20217;-51
2021/05/06 01:20:48;;;;;;;3.63;1.70;;;;;;;11.86;57.20;100044.56;5016011;28;20062;-56
2021/05/06 01:23:13;;;;;;;1.92;1.38;;;;;;;11.86;56.91;100047.38;5016862;28;20029;-55
2021/05/06 01:25:43;;;;;;;2.65;1.60;;;;;;;11.88;56.91;100046.94;5016512;28;20021;-55
2021/05/06 01:28:11;;;;;;;2.25;1.55;;;;;;;11.87;56.41;100051.78;5015297;28;20100;-52
2021/05/06 01:30:45;;;;;;;2.70;1.60;;;;;;;11.87;56.71;100046.16;5016672;28;20021;-56
2021/05/06 01:33:34;;;;;;;2.53;1.50;;;;;;;11.86;56.54;100060.66;5016363;28;20021;-57
2021/05/06 01:36:06;;;;;;;3.63;1.20;;;;;;;11.85;57.16;100068.28;5015793;28;20445;-56
2021/05/06 01:38:44;;;;;;;2.88;1.50;;;;;;;11.85;56.57;100073.94;5016454;28;20113;-54
2021/05/06 02:00:08;;;;;;;2.58;1.42;;;;;;;11.79;57.06;100089.69;5016009;28;20032;-53
2021/05/06 02:02:34;;;;;;;2.63;2.05;;;;;;;11.85;57.01;100088.00;5016039;28;20041;-51
2021/05/06 02:04:59;;;;;;;4.60;2.08;;;;;;;11.85;56.94;100084.41;5015680;28;20447;-54
2021/05/06 02:07:24;;;;;;;8.52;1.88;;;;;;;11.81;57.25;100081.63;5015905;28;20036;-55
2021/05/06 02:09:50;;;;;;;3.17;1.75;;;;;;;11.80;57.69;100094.09;5015847;28;20030;-53
2021/05/06 02:12:17;;;;;;;4.00;1.42;;;;;;;11.80;56.73;100102.56;5015591;28;20017;-56
2021/05/06 02:15:00;;;;;;;4.72;1.90;;;;;;;11.79;57.44;100106.59;5014263;28;20144;-55
2021/05/06 02:17:25;;;;;;;2.92;1.70;;;;;;;11.77;57.17;100101.31;5015413;28;20105;-56
2021/05/06 02:19:51;;;;;;;4.07;1.60;;;;;;;11.76;57.80;100107.38;5015657;28;20390;-54
2021/05/06 02:22:17;;;;;;;3.22;2.05;;;;;;;11.75;57.36;100100.94;5015489;28;20473;-54
2021/05/06 02:24:44;;;;;;;3.25;1.65;;;;;;;11.74;57.62;100109.78;5015875;28;20060;-56
2021/05/06 02:27:10;;;;;;;4.03;1.40;;;;;;;11.73;57.45;100108.19;5015938;28;20069;-57
2021/05/06 02:29:35;;;;;;;3.70;1.80;;;;;;;11.73;57.84;100116.66;5015231;28;20377;-57
2021/05/06 02:32:00;;;;;;;2.13;1.70;;;;;;;11.73;58.02;100122.28;5015420;28;20042;-55
2021/05/06 02:34:26;;;;;;;2.72;2.00;;;;;;;11.72;58.02;100123.50;5015617;28;20037;-56
2021/05/06 02:36:51;;;;;;;7.70;2.30;;;;;;;11.73;57.67;100125.88;5015178;28;20071;-56
2021/05/06 02:39:17;;;;;;;5.78;2.10;;;;;;;11.73;58.03;100125.09;5015696;28;20030;-54
2021/05/06 02:41:42;;;;;;;5.57;2.65;;;;;;;11.73;58.47;100130.72;5015344;28;20109;-57
2021/05/06 02:44:08;;;;;;;3.30;2.47;;;;;;;11.73;58.21;100142.00;5015502;28;20022;-53
2021/05/06 02:46:33;;;;;;;4.50;2.25;;;;;;;11.72;58.65;100148.84;5015204;28;20470;-51
2021/05/06 02:48:58;;;;;;;2.63;1.92;;;;;;;11.72;58.83;100140.38;5015494;28;20360;-50
2021/05/06 02:51:30;;;;;;;3.25;2.15;;;;;;;11.69;58.85;100153.28;5015670;28;20417;-57
2021/05/06 02:53:55;;;;;;;4.25;2.33;;;;;;;11.70;59.11;100146.44;5014903;28;20021;-53
2021/05/06 02:56:32;;;;;;;4.82;2.25;;;;;;;11.74;59.01;100149.22;5015677;28;20036;-55
2021/05/06 03:04:36;;;;;;;6.05;2.88;;;;;;;11.75;58.87;100145.19;5015354;28;20164;-55
2021/05/06 03:07:05;;;;;;;6.43;2.20;;;;;;;11.71;58.89;100144.44;5015099;28;20384;-57
2021/05/06 03:12:21;;;;;;;4.38;2.08;;;;;;;11.69;58.77;100135.59;5015232;28;20029;-50
2021/05/06 03:22:59;;;;;;;11.40;4.60;;;;;;;11.58;59.42;100140.53;5015061;28;20072;-57
2021/05/06 03:25:27;;;;;;;8.68;4.53;;;;;;;11.56;59.44;100137.34;5015274;28;20018;-55
2021/05/06 04:13:30;;;;;;;9.75;3.85;;;;;;;11.52;58.28;100237.91;5016907;28;20036;-54
2021/05/06 04:18:38;;;;;;;6.70;3.53;;;;;;;11.53;58.02;100245.94;5017474;28;20084;-56
2021/05/06 04:37:22;;;;;;;6.35;2.53;;;;;;;11.75;57.86;100264.25;5023576;28;20064;-56
2021/05/06 04:39:57;;;;;;;3.78;2.08;;;;;;;11.77;57.52;100255.38;5023049;28;20370;-57
2021/05/06 04:42:45;;;;;;;3.50;2.00;;;;;;;11.76;57.78;100262.22;5019019;28;20097;-56
2021/05/06 04:53:30;;;;;;;5.45;1.80;;;;;;;11.73;57.79;100268.69;5016540;28;20061;-58
2021/05/06 05:04:02;;;;;;;8.95;2.35;;;;;;;11.85;56.64;100284.34;5016846;28;20028;-58
2021/05/06 05:06:29;;;;;;;5.53;1.70;;;;;;;11.88;56.53;100281.50;5016262;28;20440;-57
2021/05/06 05:09:46;;;;;;;2.70;1.50;;;;;;;11.94;56.67;100279.81;5016491;28;20052;-55
2021/05/06 05:12:01;;;;;;;3.25;1.80;;;;;;;12.06;56.36;100279.34;5009163;28;20042;-57
2021/05/06 05:24:55;;;;;;;2.85;1.65;;;;;;;12.45;52.06;100255.59;4993412;28;20042;-57
2021/05/06 05:27:23;;;;;;;7.75;1.58;;;;;;;12.48;52.38;100273.69;5016094;28;20447;-58
2021/05/06 05:29:49;;;;;;;2.58;1.48;;;;;;;12.52;51.63;100269.63;5016041;28;20025;-54
2021/05/06 05:32:14;;;;;;;6.82;1.88;;;;;;;12.52;51.94;100266.81;5016485;28;20033;-54
2021/05/06 05:34:43;;;;;;;4.30;1.42;;;;;;;12.52;51.93;100269.63;5016383;28;20026;-54
2021/05/06 05:37:15;;;;;;;2.65;1.40;;;;;;;12.50;51.95;100269.25;5015913;28;20018;-57
2021/05/06 05:39:59;;;;;;;2.15;1.15;;;;;;;12.49;51.73;100276.09;5016314;28;20372;-55
2021/05/06 05:55:32;;;;;;;4.10;2.30;;;;;;;12.62;51.79;100284.84;5015834;28;20045;-55
2021/05/06 05:57:57;;;;;;;11.85;4.10;;;;;;;12.71;50.90;100284.34;5015818;28;20018;-56
2021/05/06 06:00:22;;;;;;;7.13;3.40;;;;;;;12.72;51.45;100291.56;5015856;28;20072;-58
2021/05/06 06:02:48;;;;;;;5.13;1.60;;;;;;;12.71;51.52;100296.41;5016026;28;20033;-57
2021/05/06 06:05:13;;;;;;;9.25;2.20;;;;;;;12.73;51.67;100296.78;5015811;28;20033;-57
2021/05/06 06:07:39;;;;;;;6.40;2.67;;;;;;;12.74;51.80;100291.94;5016090;28;20144;-60
2021/05/06 06:10:05;;;;;;;6.25;2.80;;;;;;;12.75;52.15;100302.00;5015304;28;20018;-57
2021/05/06 06:12:30;;;;;;;7.40;2.30;;;;;;;12.78;51.73;100304.00;5016023;28;20025;-56
2021/05/06 06:15:01;;;;;;;6.57;2.10;;;;;;;12.78;50.35;100295.53;5015938;28;20025;-58
2021/05/06 06:17:28;;;;;;;5.10;2.08;;;;;;;12.79;51.71;100291.50;5015623;28;20034;-57
2021/05/06 06:19:54;;;;;;;5.35;1.65;;;;;;;12.84;51.92;100291.03;5016015;28;20026;-58
2021/05/06 06:22:20;;;;;;;4.85;1.98;;;;;;;12.92;52.64;100286.91;5015501;28;20303;-63
2021/05/06 06:24:47;;;;;;;1.60;1.42;;;;;;;13.02;52.42;100288.78;5015399;28;20022;-58
2021/05/06 06:27:14;;;;;;;6.03;1.90;;;;;;;13.13;50.70;100289.44;5015712;28;20429;-64
2021/05/06 06:29:39;;;;;;;3.30;1.50;;;;;;;13.23;49.73;100296.22;5015443;28;20101;-63
2021/05/06 06:32:08;;;;;;;1.73;1.10;;;;;;;13.33;49.48;100305.75;5015861;28;20065;-57
2021/05/06 06:34:33;;;;;;;6.35;1.83;;;;;;;13.42;49.18;100300.38;5015505;28;20068;-57
2021/05/06 06:36:59;;;;;;;2.10;1.30;;;;;;;13.56;49.18;100305.84;5015263;28;20057;-58
2021/05/06 06:39:27;;;;;;;3.55;1.17;;;;;;;13.61;48.51;100296.91;5015267;28;20049;-59
2021/05/06 06:41:52;;;;;;;7.85;1.20;;;;;;;13.65;47.91;100314.59;5015476;28;20045;-58
2021/05/06 06:44:19;;;;;;;7.55;1.65;;;;;;;13.68;47.96;100305.25;5015456;28;20402;-57
2021/05/06 06:46:45;;;;;;;3.92;1.45;;;;;;;13.71;46.67;100303.63;5015315;28;20072;-59
2021/05/06 06:49:10;;;;;;;6.82;1.58;;;;;;;13.78;48.01;100300.69;5015428;28;20030;-59
2021/05/06 06:51:37;;;;;;;1.85;1.10;;;;;;;13.83;46.40;100303.84;5015529;28;20030;-58
2021/05/06 06:54:03;;;;;;;3.20;1.90;;;;;;;13.89;47.39;100306.97;5015133;28;20022;-58
2021/05/06 06:56:28;;;;;;;3.33;1.75;;;;;;;13.96;46.94;100315.31;5015179;28;20479;-61
2021/05/06 06:58:53;;;;;;;5.30;1.88;;;;;;;14.01;46.90;100308.41;5015240;28;20128;-57
2021/05/06 07:01:20;;;;;;;2.50;1.45;;;;;;;14.04;45.51;100310.38;5015647;28;20034;-57
2021/05/06 07:03:46;;;;;;;1.98;1.42;;;;;;;14.04;46.31;100313.19;5017761;28;20097;-62
2021/05/06 07:06:12;;;;;;;4.80;1.60;;;;;;;14.02;45.37;100310.00;5019332;28;20104;-55
2021/05/06 07:08:39;;;;;;;1.73;1.05;;;;;;;14.02;45.95;100312.84;5018648;28;20030;-58
2021/05/06 07:11:08;;;;;;;2.55;0.90;;;;;;;14.01;46.13;100309.22;5018995;28;20028;-59
2021/05/06 07:13:34;;;;;;;1.48;0.85;;;;;;;14.00;45.24;100312.47;5018832;28;20057;-56
2021/05/06 07:16:05;;;;;;;3.88;1.17;;;;;;;14.01;46.17;100308.41;5018918;28;20064;-56
2021/05/06 07:18:32;;;;;;;2.95;1.33;;;;;;;14.02;46.02;100315.66;5019326;28;20025;-57
2021/05/06 07:20:58;;;;;;;2.13;1.20;;;;;;;14.05;45.56;100315.59;5018608;28;20026;-57
2021/05/06 07:23:24;;;;;;;3.05;1.42;;;;;;;14.09;45.36;100312.72;5019104;28;20083;-57
2021/05/06 07:25:54;;;;;;;3.22;1.33;;;;;;;14.09;44.35;100310.69;5018708;28;20350;-57
2021/05/06 07:28:49;;;;;;;2.42;1.17;;;;;;;14.09;45.26;100319.16;5018734;28;20076;-56
2021/05/06 07:31:14;;;;;;;2.72;1.20;;;;;;;14.12;44.67;100315.47;5017555;28;20037;-59
2021/05/06 07:33:41;;;;;;;7.32;1.67;;;;;;;14.15;45.10;100314.63;5018586;28;20026;-56
2021/05/06 07:36:06;;;;;;;1.48;0.90;;;;;;;14.20;45.44;100318.97;5017892;28;20030;-57
2021/05/06 07:38:32;;;;;;;2.60;0.80;;;;;;;14.22;42.79;100331.44;5018509;28;20032;-58
2021/05/06 07:41:02;;;;;;;3.83;1.35;;;;;;;14.27;43.99;100335.84;5018552;28;20053;-54
2021/05/06 07:43:30;;;;;;;8.55;1.98;;;;;;;14.32;44.08;100329.69;5018150;28;20020;-58
2021/05/06 07:45:55;;;;;;;1.75;1.02;;;;;;;14.37;44.83;100323.53;5018597;28;20100;-56
2021/05/06 07:48:21;;;;;;;1.33;1.00;;;;;;;14.41;43.53;100332.75;5018213;28;20105;-57
2021/05/06 07:50:46;;;;;;;2.88;1.17;;;;;;;14.47;42.66;100336.72;5018283;28;20030;-59
2021/05/06 07:53:15;;;;;;;2.20;1.23;;;;;;;14.53;42.27;100328.56;5017893;28;20372;-58
2021/05/06 07:55:41;;;;;;;1.67;1.00;;;;;;;14.57;42.53;100339.81;5018063;28;20046;-58
2021/05/06 07:58:07;;;;;;;6.55;1.17;;;;;;;14.62;43.03;100337.28;5017958;28;20096;-57
2021/05/06 08:00:34;;;;;;;2.30;1.02;;;;;;;14.66;42.13;100345.69;5018488;28;20112;-57
2021/05/06 08:03:00;;;;;;;4.15;1.20;;;;;;;14.69;41.67;100336.34;5018270;28;20114;-59
2021/05/06 08:05:26;;;;;;;2.65;1.33;;;;;;;14.72;40.69;100327.78;5017809;28;20045;-55
2021/05/06 08:07:51;;;;;;;4.47;1.13;;;;;;;14.74;41.69;100330.16;5017905;28;20053;-58
2021/05/06 08:10:18;;;;;;;3.15;1.52;;;;;;;14.76;39.24;100341.84;5017836;28;20401;-65
2021/05/06 08:12:44;;;;;;;5.72;1.00;;;;;;;14.78;41.35;100345.84;5017834;28;20072;-65
2021/05/06 08:15:12;;;;;;;1.83;1.05;;;;;;;14.83;41.64;100347.41;5017098;28;20040;-58
2021/05/06 08:17:39;;;;;;;5.57;1.40;;;;;;;14.85;40.05;100353.44;5016822;28;20105;-55
2021/05/06 08:20:07;;;;;;;5.35;2.70;;;;;;;14.85;40.34;100350.59;5017354;28;20041;-55
2021/05/06 08:22:32;;;;;;;6.93;3.65;;;;;;;14.84;40.81;100349.00;5017463;28;20026;-56
2021/05/06 08:24:58;;;;;;;3.15;2.15;;;;;;;14.84;40.65;100357.50;5017570;28;20029;-56
2021/05/06 08:27:23;;;;;;;9.07;4.65;;;;;;;14.82;41.26;100342.97;5017733;28;20040;-58
2021/05/06 08:29:49;;;;;;;11.00;4.90;;;;;;;14.82;41.32;100343.78;5017344;28;20029;-61
2021/05/06 08:32:14;;;;;;;9.35;4.88;;;;;;;14.86;40.64;100346.53;5017649;28;20033;-61
2021/05/06 08:34:39;;;;;;;8.85;3.38;;;;;;;14.88;40.77;100338.41;5017463;28;20046;-59
2021/05/06 08:37:05;;;;;;;2.15;1.35;;;;;;;14.91;40.10;100331.09;5017041;28;20056;-59
2021/05/06 08:39:30;;;;;;;4.28;1.50;;;;;;;14.96;40.45;100336.22;5017287;28;20034;-55
2021/05/06 08:41:56;;;;;;;2.58;1.20;;;;;;;15.03;41.46;100339.72;5017450;28;20085;-54
2021/05/06 08:44:27;;;;;;;2.53;1.30;;;;;;;15.11;40.50;100346.06;5017500;28;20097;-55
2021/05/06 08:47:06;;;;;;;1.83;1.30;;;;;;;15.11;39.25;100334.72;5017259;28;20048;-56
2021/05/06 08:49:34;;;;;;;4.47;1.52;;;;;;;15.10;39.69;100339.59;5016905;28;20036;-61
2021/05/06 08:52:01;;;;;;;6.40;1.20;;;;;;;15.11;40.53;100338.34;5016841;28;20425;-57
2021/05/06 08:54:27;;;;;;;5.95;1.30;;;;;;;15.14;41.87;100345.97;5017137;28;20096;-52
2021/05/06 08:56:53;;;;;;;0.85;0.80;;;;;;;15.18;40.75;100345.09;5016967;28;20017;-59
2021/05/06 08:59:19;;;;;;;1.95;1.10;;;;;;;15.19;39.20;100346.69;5017060;28;20437;-59
2021/05/06 09:01:44;;;;;;;3.55;1.00;;;;;;;15.21;41.15;100347.06;5016879;28;20033;-56
2021/05/06 09:04:10;;;;;;;3.13;1.08;;;;;;;15.23;40.25;100353.09;5016627;28;20406;-54
2021/05/06 09:06:51;;;;;;;1.27;0.90;;;;;;;15.25;39.87;100344.94;5016789;28;20030;-56
2021/05/06 09:09:20;;;;;;;4.13;1.42;;;;;;;15.25;39.18;100361.94;5017055;28;20022;-57
2021/05/06 09:11:54;;;;;;;2.53;1.25;;;;;;;15.25;39.89;100354.25;5016774;28;20034;-54
2021/05/06 09:14:34;;;;;;;2.78;1.00;;;;;;;15.27;40.11;100365.13;5017101;28;20025;-55
2021/05/06 09:17:00;;;;;;;3.13;1.00;;;;;;;15.28;40.25;100358.22;5016245;28;20026;-57
2021/05/06 09:19:25;;;;;;;1.73;0.82;;;;;;;15.25;37.17;100351.41;5016810;28;20088;-54
2021/05/06 09:21:50;;;;;;;2.53;0.90;;;;;;;15.24;38.78;100351.84;5016490;28;20026;-55
2021/05/06 09:24:27;;;;;;;3.88;0.90;;;;;;;15.24;40.33;100366.00;5016430;28;20061;-57
2021/05/06 09:27:00;;;;;;;1.98;1.10;;;;;;;15.25;38.71;100361.94;5016150;28;20021;-56
2021/05/06 09:29:30;;;;;;;7.00;1.15;;;;;;;15.24;38.64;100366.00;5016325;28;20448;-61
2021/05/06 09:32:19;;;;;;;3.72;1.40;;;;;;;15.22;38.99;100369.28;5016276;28;20030;-56
2021/05/06 09:34:47;;;;;;;2.42;1.05;;;;;;;15.24;39.12;100383.00;5016536;28;20304;-57
2021/05/06 09:37:29;;;;;;;3.75;1.25;;;;;;;15.20;39.67;100370.94;5016091;28;20414;-53
2021/05/06 09:40:07;;;;;;;2.65;1.27;;;;;;;15.18;39.90;100371.38;5016371;28;20121;-57
2021/05/06 09:42:48;;;;;;;5.25;1.77;;;;;;;15.17;40.86;100374.66;5016365;28;20040;-57
2021/05/06 09:45:27;;;;;;;2.45;1.25;;;;;;;15.17;38.62;100388.81;5016470;28;20053;-62
2021/05/06 09:48:13;;;;;;;2.97;1.30;;;;;;;15.17;39.18;100371.81;5016280;28;20449;-57
2021/05/06 09:50:42;;;;;;;3.03;1.40;;;;;;;15.16;38.25;100362.53;5004754;28;20041;-58
2021/05/06 09:53:19;;;;;;;2.83;1.70;;;;;;;15.18;38.92;100364.91;5015035;28;20314;-57
2021/05/06 09:55:49;;;;;;;9.43;2.50;;;;;;;15.15;39.91;100356.06;5015904;28;20433;-61
2021/05/06 09:58:14;;;;;;;8.93;2.65;;;;;;;15.17;40.74;100357.66;5015647;28;20033;-58
2021/05/06 10:00:40;;;;;;;4.70;1.80;;;;;;;15.19;40.02;100358.03;5015873;28;20033;-56
2021/05/06 10:03:21;;;;;;;4.40;1.90;;;;;;;15.24;39.88;100357.50;5015918;28;20026;-57
2021/05/06 10:05:48;;;;;;;10.27;2.63;;;;;;;15.26;40.36;100370.00;5015951;28;20104;-57
2021/05/06 10:08:15;;;;;;;7.57;2.10;;;;;;;15.29;40.33;100363.47;5015916;28;20037;-57
2021/05/06 10:10:41;;;;;;;4.57;2.08;;;;;;;15.31;39.85;100354.53;5015684;28;20410;-57
2021/05/06 10:13:09;;;;;;;5.45;2.05;;;;;;;15.28;40.08;100355.41;5015707;28;20044;-58
2021/05/06 10:15:35;;;;;;;5.47;2.15;;;;;;;15.22;40.11;100351.50;5015682;28;20113;-56
2021/05/06 10:18:01;;;;;;;5.78;2.38;;;;;;;15.20;40.87;100362.44;5015816;28;20106;-53
2021/05/06 10:20:27;;;;;;;11.10;2.75;;;;;;;15.21;40.96;100364.06;5015916;28;20356;-57
2021/05/06 10:22:54;;;;;;;6.15;2.20;;;;;;;15.21;40.49;100356.34;5016008;28;20072;-56
2021/05/06 10:25:22;;;;;;;5.10;2.00;;;;;;;15.21;40.46;100355.56;5015768;28;20037;-58
2021/05/06 10:27:49;;;;;;;4.03;2.28;;;;;;;15.21;40.37;100356.34;5015702;28;20432;-56
2021/05/06 10:30:16;;;;;;;6.95;2.40;;;;;;;15.22;40.34;100362.81;5015501;28;20025;-57
2021/05/06 10:32:43;;;;;;;8.52;2.78;;;;;;;15.20;40.17;100368.13;5015412;28;20064;-55
2021/05/06 10:35:11;;;;;;;5.53;2.85;;;;;;;15.18;40.36;100376.25;5015663;28;20050;-56
2021/05/06 10:37:38;;;;;;;7.43;2.40;;;;;;;15.18;41.72;100379.06;5018096;28;20034;-57
2021/05/06 10:40:24;;;;;;;5.25;1.83;;;;;;;15.19;41.40;100369.34;5018287;28;20121;-58
2021/05/06 10:42:54;;;;;;;3.03;2.00;;;;;;;15.20;40.04;100362.44;5013761;28;20430;-57
2021/05/06 10:45:22;;;;;;;6.35;2.13;;;;;;;15.19;40.90;100363.69;5019384;28;20408;-58
2021/05/06 10:47:52;;;;;;;8.30;2.78;;;;;;;15.16;41.43;100362.53;5019527;28;20025;-57
2021/05/06 10:50:25;;;;;;;4.20;2.33;;;;;;;15.14;40.79;100356.50;5019185;28;20017;-56
2021/05/06 10:52:53;;;;;;;2.63;1.77;;;;;;;15.17;41.04;100363.31;5019552;28;20037;-55
2021/05/06 10:55:40;;;;;;;3.05;2.00;;;;;;;15.18;40.79;100367.75;5018989;28;20057;-56
2021/05/06 10:58:27;;;;;;;3.08;1.75;;;;;;;15.16;40.34;100365.34;5019086;28;20026;-56
2021/05/06 11:01:15;;;;;;;4.30;2.17;;;;;;;15.17;40.96;100371.81;5008269;28;20079;-56
2021/05/06 11:03:42;;;;;;;6.93;2.05;;;;;;;15.15;40.48;100364.56;5019161;28;20032;-59
2021/05/06 11:06:28;;;;;;;2.75;1.90;;;;;;;15.15;39.73;100370.22;5019072;28;20405;-54
2021/05/06 11:08:54;;;;;;;3.80;1.70;;;;;;;15.12;41.02;100362.59;5018908;28;20026;-58
2021/05/06 11:11:20;;;;;;;5.30;1.52;;;;;;;15.10;40.29;100356.56;5019028;28;20113;-57
2021/05/06 11:14:09;;;;;;;4.75;2.00;;;;;;;15.12;40.73;100371.09;5018792;28;20061;-58
2021/05/06 11:16:36;;;;;;;2.92;1.50;;;;;;;15.12;41.26;100371.09;5018831;28;20409;-56
2021/05/06 11:19:02;;;;;;;3.63;1.60;;;;;;;15.13;40.90;100384.00;5018833;28;20101;-55
2021/05/06 11:21:30;;;;;;;3.40;1.67;;;;;;;15.12;40.33;100390.91;5019010;28;20022;-57
2021/05/06 11:24:10;;;;;;;3.70;1.65;;;;;;;15.08;39.35;100384.53;5018707;28;20026;-58
2021/05/06 11:27:12;;;;;;;2.53;1.38;;;;;;;15.02;40.75;100391.91;5018766;28;20048;-54
2021/05/06 11:29:39;;;;;;;5.27;1.67;;;;;;;15.00;41.15;100385.06;5018157;28;20026;-55
2021/05/06 11:32:06;;;;;;;5.28;1.67;;;;;;;15.01;40.90;100383.84;5018581;28;20029;-56
2021/05/06 11:34:42;;;;;;;4.75;1.88;;;;;;;14.99;40.83;100377.81;5018781;28;20364;-55
2021/05/06 11:37:16;;;;;;;2.45;1.20;;;;;;;14.98;39.98;100377.00;5018426;28;20100;-57
2021/05/06 11:39:50;;;;;;;4.57;1.58;;;;;;;14.98;41.61;100377.00;5018833;28;20101;-57
2021/05/06 11:42:16;;;;;;;3.05;1.60;;;;;;;15.00;41.60;100383.03;5018224;28;20120;-54
2021/05/06 11:44:41;;;;;;;4.15;1.75;;;;;;;14.99;41.26;100372.16;5018357;28;20064;-56
2021/05/06 11:47:06;;;;;;;1.85;1.23;;;;;;;14.99;40.99;100372.16;5018272;28;20017;-57
2021/05/06 11:49:32;;;;;;;2.65;1.48;;;;;;;14.98;41.33;100364.91;5017521;28;20030;-57
2021/05/06 11:51:57;;;;;;;2.03;1.38;;;;;;;15.00;41.41;100357.56;5017988;28;20021;-56
2021/05/06 11:54:23;;;;;;;5.05;1.30;;;;;;;15.01;40.69;100359.16;5018360;28;20456;-56
2021/05/06 11:56:48;;;;;;;2.60;1.30;;;;;;;15.02;41.18;100352.28;5018073;28;20124;-56
2021/05/06 11:59:17;;;;;;;3.60;1.40;;;;;;;15.02;41.23;100349.44;5018037;28;20144;-57
2021/05/06 12:01:42;;;;;;;3.92;1.20;;;;;;;15.04;40.18;100351.84;5018186;28;20547;-55
2021/05/06 12:04:27;;;;;;;4.97;2.35;;;;;;;15.05;40.89;100350.59;5018041;28;20026;-57
2021/05/06 12:06:54;;;;;;;3.60;1.83;;;;;;;15.10;40.96;100353.75;5018175;28;20044;-62
2021/05/06 12:09:25;;;;;;;2.58;1.40;;;;;;;15.13;41.00;100350.03;5017913;28;20053;-58
2021/05/06 12:11:51;;;;;;;4.28;1.70;;;;;;;15.15;40.65;100344.75;5017461;28;20025;-57
2021/05/06 12:14:28;;;;;;;2.75;1.88;;;;;;;15.15;40.47;100335.44;5017879;28;20088;-62
2021/05/06 12:16:54;;;;;;;2.70;1.80;;;;;;;15.15;40.63;100339.06;5017524;28;20138;-63
2021/05/06 12:19:19;;;;;;;2.25;1.55;;;;;;;15.14;40.03;100329.00;5017687;28;20620;-62
2021/05/06 12:21:54;;;;;;;5.10;1.40;;;;;;;15.12;40.07;100331.47;5017662;28;20029;-61
2021/05/06 12:24:38;;;;;;;3.40;1.75;;;;;;;15.15;39.78;100313.59;5017402;28;20310;-58
2021/05/06 12:27:19;;;;;;;5.82;1.65;;;;;;;15.20;41.47;100319.97;5016310;28;20132;-57
2021/05/06 12:29:45;;;;;;;;;;;;;;;15.21;39.21;100316.72;5017724;28;20057;-59
2021/05/06 12:32:18;;;;;;;5.35;1.95;;;;;;;15.25;40.00;100316.63;5017665;28;19959;-58
2021/05/06 12:34:44;;;;;;;6.15;1.75;;;;;;;15.25;40.47;100316.63;5017615;28;20041;-61
2021/05/06 12:37:10;;;;;;;4.88;1.63;;;;;;;15.28;40.39;100304.44;5017155;28;20029;-57
2021/05/06 12:39:36;;;;;;;3.72;2.05;;;;;;;15.33;39.61;100298.25;5017190;28;20048;-58
2021/05/06 12:42:06;;;;;;;5.47;1.90;;;;;;;15.36;39.91;100288.91;5017012;28;20080;-51
2021/05/06 12:44:39;;;;;;;5.18;3.08;;;;;;;15.40;39.18;100281.13;5017294;28;20022;-59
2021/05/06 12:47:19;;;;;;;4.70;1.65;;;;;;;15.43;39.40;100278.22;5017511;28;20041;-58
2021/05/06 12:50:04;;;;;;;1.95;1.30;;;;;;;15.43;38.79;100269.72;5016890;28;20410;-56
2021/05/06 12:52:32;;;;;;;2.97;1.40;;;;;;;15.40;39.71;100272.63;5017194;28;20326;-58
2021/05/06 12:54:59;;;;;;;4.60;1.52;;;;;;;15.40;38.87;100266.97;5016342;28;20448;-58
2021/05/06 12:57:25;;;;;;;4.85;1.50;;;;;;;15.42;38.39;100270.16;5017016;28;20060;-61
2021/05/06 12:59:50;;;;;;;4.55;1.88;;;;;;;15.45;39.42;100266.44;5016966;28;20057;-54
2021/05/06 13:02:17;;;;;;;3.72;1.83;;;;;;;15.45;39.29;100257.94;5017003;28;20025;-58
2021/05/06 13:04:47;;;;;;;6.00;1.70;;;;;;;15.49;39.32;100250.16;5017311;28;20313;-53
2021/05/06 13:07:14;;;;;;;6.43;2.10;;;;;;;15.53;38.91;100256.53;5016677;28;20100;-53
2021/05/06 13:09:45;;;;;;;4.65;1.40;;;;;;;15.54;38.88;100252.47;5016522;28;20425;-58
2021/05/06 13:12:12;;;;;;;6.13;1.48;;;;;;;15.58;39.58;100249.53;5016628;28;20105;-57
2021/05/06 13:14:47;;;;;;;1.98;1.20;;;;;;;15.61;38.92;100248.69;5017138;28;20037;-60
2021/05/06 13:17:27;;;;;;;5.82;1.70;;;;;;;15.64;38.43;100239.34;5016217;28;20468;-52
2021/05/06 13:19:53;;;;;;;2.92;2.05;;;;;;;15.66;38.38;100246.16;5016739;28;20036;-67
2021/05/06 13:22:20;;;;;;;2.47;1.70;;;;;;;15.67;37.91;100241.28;5016580;28;20034;-54
2021/05/06 13:24:48;;;;;;;2.50;1.15;;;;;;;15.66;38.22;100240.47;5016163;28;20080;-57
2021/05/06 13:27:24;;;;;;;2.67;1.15;;;;;;;15.67;38.61;100252.63;5015416;28;20299;-58
2021/05/06 13:30:03;;;;;;;2.53;1.35;;;;;;;15.66;37.92;100251.03;5016350;28;20029;-58
2021/05/06 13:32:36;;;;;;;4.68;1.30;;;;;;;15.64;38.40;100254.28;5016492;28;20030;-56
2021/05/06 13:35:03;;;;;;;5.10;1.35;;;;;;;15.64;38.60;100231.63;5016074;28;20034;-58
2021/05/06 13:37:42;;;;;;;11.98;1.92;;;;;;;15.65;39.09;100219.06;5016271;28;20133;-58
2021/05/06 13:40:09;;;;;;;2.95;2.13;;;;;;;15.64;38.80;100203.31;5016135;28;20029;-58
2021/05/06 13:42:35;;;;;;;3.13;1.08;;;;;;;15.65;37.93;100187.88;5016113;28;20121;-56
2021/05/06 13:45:01;;;;;;;1.48;1.15;;;;;;;15.66;38.57;100189.47;5016577;28;20056;-58
2021/05/06 13:47:26;;;;;;;15.55;1.88;;;;;;;15.69;39.13;100194.25;5016318;28;20021;-56
2021/05/06 13:49:52;;;;;;;3.67;1.77;;;;;;;15.74;38.92;100199.41;4998694;28;20100;-56
2021/05/06 13:52:19;;;;;;;2.88;1.10;;;;;;;15.80;37.87;100207.34;5015075;28;20033;-57
2021/05/06 13:54:45;;;;;;;4.95;1.13;;;;;;;15.81;38.70;100195.56;5015734;28;20060;-56
2021/05/06 13:57:10;;;;;;;2.83;0.98;;;;;;;15.81;38.01;100200.44;5016139;28;20414;-63
2021/05/06 13:59:36;;;;;;;2.42;1.27;;;;;;;15.81;37.53;100195.56;5016180;28;20071;-61
2021/05/06 14:02:01;;;;;;;3.67;1.25;;;;;;;15.79;38.60;100191.59;5016156;28;20026;-56
2021/05/06 14:04:26;;;;;;;1.98;1.17;;;;;;;15.80;37.86;100176.19;5015510;28;20321;-56
2021/05/06 14:06:52;;;;;;;3.00;1.10;;;;;;;15.83;39.03;100175.28;5015382;28;20028;-61
2021/05/06 14:09:19;;;;;;;2.40;1.00;;;;;;;15.86;39.10;100175.19;5015557;28;20083;-62
2021/05/06 14:11:46;;;;;;;2.70;1.17;;;;;;;15.87;38.22;100185.28;5015239;28;20080;-61
2021/05/06 14:14:12;;;;;;;1.40;1.00;;;;;;;15.89;38.53;100185.69;5015772;28;20092;-58
2021/05/06 14:16:39;;;;;;;5.00;1.83;;;;;;;15.93;38.78;100177.88;5015667;28;20429;-55
2021/05/06 14:19:07;;;;;;;3.55;1.02;;;;;;;15.97;38.02;100169.28;5015689;28;20028;-60
2021/05/06 14:21:35;;;;;;;3.75;1.60;;;;;;;15.97;37.96;100166.44;5015863;28;20028;-59
2021/05/06 14:24:01;;;;;;;2.25;1.00;;;;;;;15.93;38.15;100158.03;5015547;28;20057;-59
2021/05/06 14:26:26;;;;;;;1.90;0.90;;;;;;;15.92;37.51;100155.66;5015455;28;20480;-58
2021/05/06 14:28:52;;;;;;;2.10;1.00;;;;;;;15.93;36.99;100158.03;5015715;28;20024;-61
2021/05/06 14:31:17;;;;;;;1.35;0.80;;;;;;;15.93;35.83;100160.06;5015513;28;20088;-56
2021/05/06 14:33:43;;;;;;;4.32;1.00;;;;;;;15.93;35.34;100162.91;5015643;28;20317;-60
2021/05/06 14:36:10;;;;;;;2.05;1.08;;;;;;;15.91;36.75;100159.72;5015167;28;20029;-54
2021/05/06 14:38:41;;;;;;;1.17;0.80;;;;;;;15.90;37.46;100149.63;5015724;28;20022;-59
2021/05/06 14:41:08;;;;;;;2.42;1.02;;;;;;;15.93;37.39;100141.03;5015080;28;20084;-57
2021/05/06 14:43:34;;;;;;;1.75;1.05;;;;;;;15.92;37.82;100138.63;5015019;28;20061;-57
2021/05/06 14:46:00;;;;;;;1.50;0.90;;;;;;;15.93;35.96;100145.91;5015021;28;20029;-54
2021/05/06 14:48:26;;;;;;;3.47;1.05;;;;;;;15.93;36.06;100135.34;5015189;28;20052;-52
2021/05/06 14:50:52;;;;;;;1.90;0.90;;;;;;;15.90;36.46;100130.59;5014123;28;20366;-56
2021/05/06 14:53:17;;;;;;;4.35;1.10;;;;;;;15.89;37.11;100134.66;5014842;28;20065;-58